Pagina principală
METAR-TAF:

METAR-TAF

Aeroporturi :

Wallis, Franța

Latitudine: 13-14S, longitudine: 176-10W, elevație: 23 m

Observații meteo curente

Raportul a fost făcut în urmă cu 18 de minute, la 08:30 UTC
Vânt 3 kt de la Est
Temperatură 29°C
Umiditate 74%
Presiune 1009 hPa
Vizibilitate de 10 km sau mai mult

METAR: NLWW 290830Z AUTO 10003KT 9999 NCD 29/24 Q1009 TEMPO 2000 +SHRA BKN010 SCT018CB

Ora: 20:48 (08:48 UTC)

Prognoză

Raportul a fost făcut în urmă cu 3 ore și 48 de minute, la 05:00 UTC
Prognoză valabilă de la 29 ora 06 UTC la 30 ora 06 UTC
Vânt 8 kt de la Est/Sud-est
Vizibilitate de 10 km sau mai mult
Nori împrăștiați la o înălțime de 2000 picior
Temporar
de la 29 ora 10 UTC la 29 ora 19 UTC
Vizibilitate: 2000 m
Nori fragmentați la o înălțime de 1000 picior
Nori împrăștiați la o înălțime de 1800 picior, Cumulonimbus.
averse de ploaie puternică

TAF: NLWW 290500Z 2906/3006 11008KT 9999 SCT020 TEMPO 2910/2919 2000 +SHRA BKN010 SCT018CB

Observații și prognoze meteo pentru peste 4.000 de aeroporturi (rapoarte METAR și TAF).

Stațiile disponibile sunt reprezentate pe hartă prin puncte galbene și roșii.

Țineți indicatorul mouse-ului pe punctul dorit pentru a vedea denumirea stației.

Apoi, faceți clic pentru a vedea observațiile și prognozele meteorologice.

Pentru a schimba harta: Pentru mărire, faceți clic pe butoanele verzi cu cruce neagră; pentru micșorare, pe butonul verde cu o liniuță; pentru hărți învecinate, pe săgețile verzi.


METAR-TAF: